Time;durP1;ratioP1;P1;durP2;ratioP2;P2;SDS_P1;SDS_P2;PMS_P1;PMS_P2;Temp;Humidity;BMP_temperature;BMP_pressure;BME280_temperature;BME280_humidity;BME280_pressure;Samples;Min_cycle;Max_cycle;Signal;HPM_P1;HPM_P2
2022/09/14 00:01:46;;;;;;;9.52;8.50;;;;;;;13.72;91.21;100231.63;7394925;19;20018;-68
2022/09/14 00:04:17;;;;;;;11.00;8.75;;;;;;;13.71;90.92;100234.34;7395115;19;20014;-68
2022/09/14 00:06:49;;;;;;;9.77;8.10;;;;;;;13.68;91.22;100228.28;7394930;19;20022;-68
2022/09/14 00:09:20;;;;;;;10.95;8.32;;;;;;;13.67;91.06;100233.63;7395499;19;20082;-69
2022/09/14 00:11:49;;;;;;;8.55;7.63;;;;;;;13.64;91.26;100224.06;7394926;19;20107;-68
2022/09/14 00:14:18;;;;;;;12.00;8.02;;;;;;;13.62;91.36;100222.41;7394788;19;20077;-68
2022/09/14 00:16:47;;;;;;;12.05;8.30;;;;;;;13.62;91.59;100225.06;7395185;19;20024;-69
2022/09/14 00:19:20;;;;;;;9.95;6.85;;;;;;;13.60;91.55;100225.13;7394677;19;20491;-69
2022/09/14 00:21:53;;;;;;;10.13;7.00;;;;;;;13.60;91.62;100213.72;7394581;19;20434;-68
2022/09/14 00:24:21;;;;;;;9.32;6.50;;;;;;;13.60;91.52;100216.38;7396862;19;20492;-69
2022/09/14 00:26:50;;;;;;;7.97;6.47;;;;;;;13.58;91.47;100211.16;7401208;19;20025;-69
2022/09/14 00:29:19;;;;;;;8.35;6.35;;;;;;;13.58;91.32;100213.78;7402356;19;20018;-69
2022/09/14 00:31:48;;;;;;;9.82;6.38;;;;;;;13.57;91.51;100204.16;7400930;19;20031;-68
2022/09/14 00:34:18;;;;;;;9.15;6.03;;;;;;;13.57;91.09;100195.41;7403162;19;20089;-69
2022/09/14 00:36:48;;;;;;;6.03;5.38;;;;;;;13.58;91.08;100197.13;7402438;19;20018;-69
2022/09/14 00:39:22;;;;;;;6.07;4.88;;;;;;;13.58;90.91;100186.56;7401666;19;20010;-69
2022/09/14 00:41:52;;;;;;;8.23;5.30;;;;;;;13.57;90.94;100184.84;7400983;19;20018;-68
2022/09/14 00:44:51;;;;;;;6.05;5.18;;;;;;;13.57;90.45;100185.69;7401610;19;20014;-69
2022/09/14 00:47:20;;;;;;;5.68;4.53;;;;;;;13.58;90.35;100181.31;7398497;19;20085;-68
2022/09/14 00:49:49;;;;;;;8.07;4.65;;;;;;;13.57;90.35;100182.22;7401943;19;20544;-69
2022/09/14 00:52:21;;;;;;;7.50;4.50;;;;;;;13.55;90.29;100182.28;7405344;19;20473;-71
2022/09/14 00:54:54;;;;;;;9.45;4.72;;;;;;;13.54;90.34;100177.09;7402543;19;20017;-69
2022/09/14 00:57:25;;;;;;;7.20;4.72;;;;;;;13.52;90.04;100180.66;7402795;19;20082;-69
2022/09/14 00:59:55;;;;;;;12.70;4.82;;;;;;;13.52;90.03;100185.91;7401561;19;20082;-69
2022/09/14 01:02:26;;;;;;;10.95;4.78;;;;;;;13.48;89.91;100180.84;7399751;19;20018;-68
2022/09/14 01:04:55;;;;;;;10.60;4.72;;;;;;;13.47;89.74;100185.25;7401779;19;20010;-68
2022/09/14 01:07:40;;;;;;;10.05;4.57;;;;;;;13.43;89.59;100183.66;7399217;19;20481;-69
2022/09/14 01:10:27;;;;;;;6.65;4.40;;;;;;;13.39;89.56;100187.34;7401548;19;20015;-69
2022/09/14 01:13:09;;;;;;;7.13;5.07;;;;;;;13.33;89.24;100188.44;7399186;19;20018;-68
2022/09/14 01:15:50;;;;;;;6.60;4.45;;;;;;;13.26;89.75;100176.44;7398745;19;20018;-68
2022/09/14 01:18:24;;;;;;;7.13;4.47;;;;;;;13.22;89.62;100182.78;7401000;19;20015;-69
2022/09/14 01:20:58;;;;;;;7.88;5.20;;;;;;;13.15;89.81;100174.25;7400436;19;20070;-69
2022/09/14 01:23:35;;;;;;;8.60;5.75;;;;;;;13.09;89.81;100174.53;7401205;19;20432;-69
2022/09/14 01:26:37;;;;;;;7.72;4.93;;;;;;;13.06;89.86;100173.81;7400889;19;20100;-69
2022/09/14 01:29:15;;;;;;;10.55;4.97;;;;;;;13.02;89.97;100170.44;7398448;19;20014;-69
2022/09/14 01:31:51;;;;;;;6.95;4.32;;;;;;;12.98;89.88;100168.84;7399831;19;20018;-69
2022/09/14 01:34:27;;;;;;;9.65;5.35;;;;;;;12.96;90.15;100168.88;7398294;19;20024;-70
2022/09/14 01:37:00;;;;;;;9.77;5.72;;;;;;;12.93;89.93;100173.41;7398223;19;20081;-69
2022/09/14 01:39:32;;;;;;;5.80;4.97;;;;;;;12.90;90.05;100170.94;7399747;19;20017;-69
2022/09/14 01:42:03;;;;;;;11.45;4.95;;;;;;;12.86;90.22;100171.06;7399630;19;20025;-69
2022/09/14 01:44:38;;;;;;;9.00;5.57;;;;;;;12.80;90.32;100165.16;7400487;19;20362;-69
2022/09/14 01:47:11;;;;;;;8.45;4.90;;;;;;;12.78;90.49;100161.75;7399368;19;20037;-69
2022/09/14 01:49:45;;;;;;;7.18;5.57;;;;;;;12.78;90.28;100161.75;7399578;19;20363;-70
2022/09/14 01:52:17;;;;;;;10.35;5.40;;;;;;;12.75;90.31;100159.22;7398154;19;20015;-69
2022/09/14 01:54:49;;;;;;;9.00;6.20;;;;;;;12.73;90.64;100166.34;7400852;19;20018;-69
2022/09/14 01:57:23;;;;;;;7.55;5.22;;;;;;;12.69;90.76;100160.34;7399602;19;20070;-69
2022/09/14 01:59:57;;;;;;;11.60;5.87;;;;;;;12.66;90.65;100152.56;7400096;19;20018;-69
2022/09/14 02:02:29;;;;;;;9.93;5.78;;;;;;;12.66;90.59;100160.47;7397557;19;20015;-69
2022/09/14 02:05:04;;;;;;;12.05;5.68;;;;;;;12.63;90.76;100158.81;7397575;19;20070;-69
2022/09/14 02:07:33;;;;;;;8.27;5.47;;;;;;;12.62;90.92;100153.59;7397549;19;20033;-69
2022/09/14 02:10:03;;;;;;;12.73;6.00;;;;;;;12.60;90.70;100161.56;7399192;19;20015;-69
2022/09/14 02:12:32;;;;;;;6.97;5.55;;;;;;;12.60;90.99;100156.31;7397556;19;20083;-69
2022/09/14 02:15:03;;;;;;;7.57;4.88;;;;;;;12.58;91.05;100155.50;7399234;19;20082;-69
2022/09/14 02:17:32;;;;;;;10.30;5.97;;;;;;;12.58;90.98;100159.91;7399626;19;20022;-69
2022/09/14 02:20:03;;;;;;;7.18;5.03;;;;;;;12.56;91.16;100144.16;7401887;19;20019;-70
2022/09/14 02:22:32;;;;;;;10.15;5.43;;;;;;;12.55;91.25;100153.00;7401674;19;20022;-70
2022/09/14 02:25:01;;;;;;;6.60;5.07;;;;;;;12.56;91.12;100159.97;7398979;19;20082;-69
2022/09/14 02:27:29;;;;;;;9.80;5.57;;;;;;;12.55;91.17;100147.75;7396144;19;20082;-69
2022/09/14 02:29:58;;;;;;;11.95;5.68;;;;;;;12.53;90.95;100150.41;7398626;19;20078;-69
2022/09/14 02:32:35;;;;;;;12.25;5.78;;;;;;;12.52;91.20;100146.09;7396936;19;20015;-69
2022/09/14 02:35:13;;;;;;;10.25;5.03;;;;;;;12.51;91.37;100148.75;7397931;19;20508;-70
2022/09/14 02:37:50;;;;;;;9.70;4.90;;;;;;;12.48;91.30;100144.47;7397741;19;20010;-69
2022/09/14 02:40:26;;;;;;;13.48;5.82;;;;;;;12.50;91.36;100144.44;7395588;19;20094;-69
2022/09/14 02:43:08;;;;;;;7.05;5.10;;;;;;;12.47;91.43;100142.78;7395937;19;20017;-69
2022/09/14 02:45:42;;;;;;;9.57;5.00;;;;;;;12.46;91.41;100145.44;7398459;19;20074;-70
2022/09/14 02:48:20;;;;;;;8.57;5.63;;;;;;;12.43;91.54;100140.31;7395391;19;20425;-70
2022/09/14 02:50:54;;;;;;;10.25;5.75;;;;;;;12.41;91.42;100140.38;7398225;19;20029;-69
2022/09/14 02:53:26;;;;;;;;;;;;;;;12.39;91.38;100142.22;7398407;19;20074;-70
2022/09/14 02:55:57;;;;;;;8.15;5.50;;;;;;;12.36;91.29;100139.72;7395722;19;19911;-69
2022/09/14 02:58:37;;;;;;;8.43;5.50;;;;;;;12.33;91.43;100135.44;7397016;19;20013;-69
2022/09/14 03:01:07;;;;;;;8.55;5.78;;;;;;;12.31;91.59;100134.63;7396956;19;20010;-69
2022/09/14 03:03:38;;;;;;;8.95;5.35;;;;;;;12.28;91.62;100126.84;7397286;19;20020;-69
2022/09/14 03:06:07;;;;;;;6.93;5.30;;;;;;;12.29;91.58;100132.97;7395858;19;20089;-69
2022/09/14 03:08:36;;;;;;;10.90;5.78;;;;;;;12.27;91.60;100138.28;7395264;19;20015;-69
2022/09/14 03:11:05;;;;;;;9.43;5.97;;;;;;;12.25;91.46;100134.84;7395158;19;20014;-70
2022/09/14 03:13:34;;;;;;;7.85;5.90;;;;;;;12.26;91.78;100140.97;7396681;19;20021;-69
2022/09/14 03:16:06;;;;;;;9.65;5.13;;;;;;;12.25;91.78;100139.28;7395939;19;20372;-70
2022/09/14 03:18:38;;;;;;;9.23;4.90;;;;;;;12.24;91.87;100132.28;7394516;19;20021;-69
2022/09/14 03:21:07;;;;;;;12.82;6.22;;;;;;;12.22;91.80;100132.34;7394669;19;20010;-70
2022/09/14 03:23:40;;;;;;;7.47;4.85;;;;;;;12.22;91.86;100129.72;7396415;19;20083;-69
2022/09/14 03:26:09;;;;;;;6.53;5.13;;;;;;;12.22;91.98;100137.63;7396217;19;20010;-69
2022/09/14 03:28:45;;;;;;;6.13;5.03;;;;;;;12.20;91.86;100148.16;7394899;19;20015;-69
2022/09/14 03:31:21;;;;;;;9.70;5.18;;;;;;;12.20;91.93;100145.53;7396506;19;20022;-69
2022/09/14 03:33:55;;;;;;;8.52;5.00;;;;;;;12.18;91.77;100139.50;7396750;19;20074;-69
2022/09/14 03:36:24;;;;;;;11.32;4.82;;;;;;;12.17;91.94;100143.03;7394741;19;20035;-69
2022/09/14 03:38:56;;;;;;;9.85;5.13;;;;;;;12.14;91.62;100132.63;7394268;19;20015;-69
2022/09/14 03:41:25;;;;;;;8.00;4.43;;;;;;;12.11;91.64;100138.00;7393950;19;20011;-69
2022/09/14 03:43:54;;;;;;;7.88;4.40;;;;;;;12.09;91.60;100134.56;7395755;19;20021;-69
2022/09/14 03:46:24;;;;;;;6.63;4.05;;;;;;;12.06;91.75;100130.28;7395622;19;20090;-69
2022/09/14 03:48:56;;;;;;;9.73;4.55;;;;;;;12.06;91.64;100124.19;7394272;19;20078;-69
2022/09/14 03:51:24;;;;;;;10.55;4.82;;;;;;;12.05;91.59;100127.72;7395486;19;20081;-69
2022/09/14 03:53:53;;;;;;;8.63;4.43;;;;;;;12.03;91.42;100130.41;7394384;19;20031;-69
2022/09/14 03:56:24;;;;;;;6.43;4.50;;;;;;;12.03;91.38;100140.06;7395483;19;20019;-69
2022/09/14 03:58:52;;;;;;;6.07;3.50;;;;;;;12.02;91.61;100127.84;7393821;19;20015;-67
2022/09/14 04:01:22;;;;;;;7.93;4.25;;;;;;;12.00;91.46;100138.41;7395284;19;20087;-68
2022/09/14 04:03:52;;;;;;;10.52;4.13;;;;;;;12.00;91.45;100137.56;7395037;19;20094;-68
2022/09/14 04:06:23;;;;;;;10.50;4.28;;;;;;;12.00;91.58;100127.88;7395116;19;20081;-69
2022/09/14 04:08:51;;;;;;;7.95;4.05;;;;;;;12.00;91.23;100119.16;7392881;19;20015;-69
2022/09/14 04:11:22;;;;;;;6.20;3.45;;;;;;;11.98;91.36;100113.97;7394061;19;20421;-68
2022/09/14 04:13:51;;;;;;;6.95;3.33;;;;;;;11.98;91.29;100111.34;7394687;19;20025;-69
2022/09/14 04:16:21;;;;;;;7.63;3.88;;;;;;;11.97;91.40;100106.97;7394932;19;20015;-69
2022/09/14 04:18:51;;;;;;;8.13;4.22;;;;;;;11.96;91.18;100102.63;7394972;19;20025;-69
2022/09/14 04:21:25;;;;;;;7.50;4.53;;;;;;;11.96;91.08;100112.31;7394179;19;20053;-69
2022/09/14 04:23:54;;;;;;;11.15;4.70;;;;;;;11.94;91.17;100114.94;7393088;19;20422;-68
2022/09/14 04:26:25;;;;;;;8.43;4.78;;;;;;;11.94;91.00;100108.84;7394765;19;20014;-68
2022/09/14 04:28:53;;;;;;;7.88;3.85;;;;;;;11.94;91.22;100108.84;7393246;19;20086;-69
2022/09/14 04:31:22;;;;;;;9.43;4.20;;;;;;;11.92;91.16;100113.28;7394363;19;20021;-68
2022/09/14 04:33:50;;;;;;;9.35;3.80;;;;;;;11.90;90.85;100110.72;7393607;19;20018;-68
2022/09/14 04:36:22;;;;;;;6.05;3.85;;;;;;;11.90;90.77;100101.06;7394099;19;20434;-69
2022/09/14 04:38:55;;;;;;;8.57;4.13;;;;;;;11.88;90.80;100100.28;7394438;19;20018;-69
2022/09/14 04:41:25;;;;;;;7.82;4.25;;;;;;;11.87;91.10;100106.44;7392019;19;20393;-69
2022/09/14 04:43:54;;;;;;;9.18;4.50;;;;;;;11.86;90.74;100096.81;7393644;19;20082;-68
2022/09/14 04:46:24;;;;;;;11.02;4.75;;;;;;;11.82;90.71;100087.34;7391739;19;20499;-69
2022/09/14 04:48:53;;;;;;;7.45;4.43;;;;;;;11.82;91.13;100087.34;7392788;19;20011;-69
2022/09/14 04:51:23;;;;;;;9.45;4.80;;;;;;;11.83;91.05;100088.22;7394254;19;20025;-70
2022/09/14 04:53:55;;;;;;;9.65;5.38;;;;;;;11.81;91.19;100093.50;7394304;19;20427;-68
2022/09/14 04:56:25;;;;;;;11.65;7.05;;;;;;;11.80;91.09;100096.22;7394640;19;20422;-69
2022/09/14 04:58:57;;;;;;;9.50;7.13;;;;;;;11.79;91.21;100099.75;7392398;19;20039;-69
2022/09/14 05:01:28;;;;;;;40.83;24.67;;;;;;;11.77;91.10;100104.22;7392763;19;20019;-70
2022/09/14 05:03:57;;;;;;;11.23;7.07;;;;;;;11.75;91.06;100096.38;7392380;19;20019;-69
2022/09/14 05:06:27;;;;;;;23.73;10.77;;;;;;;11.75;91.20;100099.00;7392500;19;20031;-69
2022/09/14 05:08:59;;;;;;;15.32;7.97;;;;;;;11.74;91.16;100098.16;7390389;19;20480;-68
2022/09/14 05:11:30;;;;;;;12.02;6.43;;;;;;;11.74;91.34;100099.94;7395888;19;20095;-68
2022/09/14 05:13:59;;;;;;;9.10;5.53;;;;;;;11.75;91.26;100106.88;7400454;19;20194;-69
2022/09/14 05:16:29;;;;;;;6.55;5.07;;;;;;;11.75;91.21;100109.50;7400105;19;20021;-69
2022/09/14 05:19:00;;;;;;;11.80;5.32;;;;;;;11.75;91.27;100101.63;7400221;19;20529;-69
2022/09/14 05:21:31;;;;;;;12.18;5.80;;;;;;;11.76;91.35;100099.88;7398685;19;20018;-69
2022/09/14 05:24:04;;;;;;;11.20;6.63;;;;;;;11.78;91.23;100098.03;7399786;19;20086;-68
2022/09/14 05:26:34;;;;;;;16.70;6.43;;;;;;;11.79;91.49;100095.38;7399973;19;20502;-68
2022/09/14 05:29:04;;;;;;;10.88;6.07;;;;;;;11.81;91.33;100088.25;7397926;19;20085;-67
2022/09/14 05:31:33;;;;;;;14.60;8.65;;;;;;;11.85;91.47;100089.00;7397139;19;20019;-67
2022/09/14 05:34:02;;;;;;;11.93;7.05;;;;;;;11.87;91.29;100093.28;7399541;19;20481;-68
2022/09/14 05:36:31;;;;;;;14.32;8.85;;;;;;;11.91;91.40;100094.03;7400006;19;20090;-68
2022/09/14 05:39:02;;;;;;;9.40;6.18;;;;;;;11.95;91.29;100089.53;7403424;19;20078;-70
2022/09/14 05:41:30;;;;;;;9.23;5.70;;;;;;;11.97;91.49;100087.75;7399525;19;20006;-68
2022/09/14 05:44:00;;;;;;;5.97;4.60;;;;;;;11.99;91.35;100092.03;7399865;19;20415;-68
2022/09/14 05:46:29;;;;;;;9.95;5.25;;;;;;;12.01;91.46;100091.97;7396597;19;20484;-68
2022/09/14 05:48:57;;;;;;;7.82;5.65;;;;;;;12.03;90.97;100092.72;7396533;19;20014;-68
2022/09/14 05:51:27;;;;;;;8.60;6.20;;;;;;;12.05;91.08;100083.03;7398379;19;20020;-68
2022/09/14 05:53:58;;;;;;;11.93;5.90;;;;;;;12.07;91.05;100089.09;7400007;19;20086;-68
2022/09/14 05:56:31;;;;;;;7.40;4.63;;;;;;;12.08;90.93;100090.81;7399438;19;20023;-69
2022/09/14 05:58:59;;;;;;;8.70;4.07;;;;;;;12.10;90.72;100085.50;7399973;19;20014;-68
2022/09/14 06:01:31;;;;;;;9.30;5.13;;;;;;;12.06;90.72;100072.44;7398755;19;20078;-69
2022/09/14 06:04:02;;;;;;;10.77;5.47;;;;;;;12.13;90.73;100088.00;7399180;19;20042;-68
2022/09/14 06:06:32;;;;;;;14.60;6.88;;;;;;;12.15;90.68;100081.75;7396668;19;20011;-68
2022/09/14 06:09:00;;;;;;;16.75;8.43;;;;;;;12.18;90.39;100081.66;7397745;19;20426;-69
2022/09/14 06:11:35;;;;;;;6.53;4.82;;;;;;;12.19;90.24;100080.72;7398053;19;20032;-69
2022/09/14 06:14:03;;;;;;;9.55;4.43;;;;;;;12.23;90.27;100073.56;7399176;19;20014;-70
2022/09/14 06:16:32;;;;;;;8.68;4.55;;;;;;;12.27;90.20;100076.94;7399190;19;20034;-69
2022/09/14 06:19:01;;;;;;;6.65;4.07;;;;;;;12.30;90.04;100069.78;7398402;19;20082;-69
2022/09/14 06:21:32;;;;;;;9.73;6.38;;;;;;;12.34;90.05;100076.63;7397116;19;20014;-69
2022/09/14 06:24:01;;;;;;;12.93;6.40;;;;;;;12.38;90.08;100069.47;7395524;19;20014;-69
2022/09/14 06:26:32;;;;;;;6.95;5.20;;;;;;;12.41;89.79;100079.00;7398151;19;20021;-69
2022/09/14 06:29:00;;;;;;;9.85;5.82;;;;;;;12.44;89.85;100074.50;7396676;19;20015;-69
2022/09/14 06:31:29;;;;;;;13.88;4.78;;;;;;;12.51;89.74;100078.59;7397301;19;20086;-69
2022/09/14 06:33:57;;;;;;;7.18;4.78;;;;;;;12.55;89.67;100074.91;7397221;19;20485;-69
2022/09/14 06:36:28;;;;;;;9.15;4.30;;;;;;;12.61;89.49;100078.22;7397108;19;20085;-68
2022/09/14 06:38:57;;;;;;;9.90;4.50;;;;;;;12.66;89.20;100065.72;7397537;19;20078;-69
2022/09/14 06:41:29;;;;;;;6.38;4.03;;;;;;;12.71;89.25;100079.53;7395993;19;20487;-68
2022/09/14 06:44:02;;;;;;;6.00;4.50;;;;;;;12.76;88.75;100082.84;7397254;19;20018;-68
2022/09/14 06:46:32;;;;;;;12.17;4.50;;;;;;;12.83;88.70;100081.66;7397644;19;20045;-69
2022/09/14 06:49:03;;;;;;;7.40;4.82;;;;;;;12.88;88.68;100084.13;7396253;19;21256;-68
2022/09/14 06:51:34;;;;;;;9.55;3.95;;;;;;;12.97;88.45;100088.13;7396579;19;20074;-68
2022/09/14 06:54:03;;;;;;;11.43;4.90;;;;;;;13.02;88.37;100083.53;7398003;19;20418;-69
2022/09/14 06:56:34;;;;;;;10.05;5.60;;;;;;;13.10;88.06;100081.41;7396842;19;20026;-68
2022/09/14 06:59:13;;;;;;;8.38;4.68;;;;;;;13.16;87.93;100086.41;7396839;19;20086;-68
2022/09/14 07:01:43;;;;;;;8.85;3.40;;;;;;;13.24;87.78;100091.34;7396307;19;20433;-67
2022/09/14 07:04:13;;;;;;;7.82;3.00;;;;;;;13.29;87.38;100083.25;7396998;19;20071;-68
2022/09/14 07:06:44;;;;;;;11.55;5.32;;;;;;;13.35;86.93;100083.00;7396587;19;20035;-69
2022/09/14 07:09:13;;;;;;;8.93;2.88;;;;;;;13.42;86.70;100092.38;7396195;19;20018;-68
2022/09/14 07:11:42;;;;;;;43.10;24.95;;;;;;;13.50;86.50;100086.78;7395843;19;20096;-68
2022/09/14 07:14:13;;;;;;;16.70;7.80;;;;;;;13.60;85.99;100093.34;7396935;19;20018;-69
2022/09/14 07:16:42;;;;;;;9.10;3.20;;;;;;;13.71;85.74;100084.09;7394424;19;20066;-68
2022/09/14 07:19:13;;;;;;;9.00;2.75;;;;;;;13.79;84.93;100092.53;7396103;19;20544;-68
2022/09/14 07:21:43;;;;;;;7.15;2.30;;;;;;;13.87;84.19;100081.63;7395662;19;20011;-68
2022/09/14 07:24:13;;;;;;;4.97;2.10;;;;;;;13.93;83.72;100086.63;7396161;19;20015;-69
2022/09/14 07:26:43;;;;;;;7.78;2.08;;;;;;;13.98;83.05;100090.72;7396676;19;20018;-69
2022/09/14 07:29:17;;;;;;;5.20;2.15;;;;;;;14.02;83.07;100086.19;7395963;19;20045;-69
2022/09/14 07:31:47;;;;;;;4.38;2.10;;;;;;;14.08;83.16;100085.88;7396475;19;20023;-68
2022/09/14 07:34:16;;;;;;;11.25;4.78;;;;;;;14.17;82.91;100082.81;7393498;19;20038;-69
2022/09/14 07:36:45;;;;;;;6.32;2.58;;;;;;;14.27;82.67;100085.03;7394005;19;20074;-68
2022/09/14 07:39:16;;;;;;;4.55;1.80;;;;;;;14.38;82.08;100089.78;7395998;19;20086;-69
2022/09/14 07:41:45;;;;;;;8.50;2.10;;;;;;;14.44;81.71;100087.69;7393597;19;20380;-68
2022/09/14 07:44:19;;;;;;;4.35;1.70;;;;;;;14.53;81.06;100096.94;7395852;19;20086;-68
2022/09/14 07:46:48;;;;;;;5.03;2.03;;;;;;;14.59;81.24;100086.09;7396048;19;20086;-68
2022/09/14 07:49:18;;;;;;;8.40;2.40;;;;;;;14.66;80.84;100079.63;7394903;19;20018;-69
2022/09/14 07:51:47;;;;;;;11.88;4.63;;;;;;;14.75;81.04;100086.22;7393266;19;20014;-70
2022/09/14 07:54:18;;;;;;;8.98;2.50;;;;;;;14.84;80.71;100087.56;7395173;19;20041;-69
2022/09/14 07:56:48;;;;;;;9.02;2.17;;;;;;;14.95;80.18;100085.22;7396847;19;20070;-70
2022/09/14 07:59:19;;;;;;;6.47;2.55;;;;;;;15.04;80.02;100091.84;7393822;19;20056;-69
2022/09/14 08:01:48;;;;;;;11.38;2.63;;;;;;;15.15;79.95;100089.50;7396904;19;20481;-69
2022/09/14 08:04:17;;;;;;;6.18;2.00;;;;;;;15.28;79.56;100091.53;7393663;19;20030;-69
2022/09/14 08:06:45;;;;;;;6.97;3.00;;;;;;;15.39;79.20;100089.19;7394749;19;20018;-68
2022/09/14 08:09:14;;;;;;;11.48;2.55;;;;;;;15.51;78.62;100086.81;7394347;19;20424;-68
2022/09/14 08:11:42;;;;;;;6.88;2.25;;;;;;;15.57;78.22;100084.69;7393750;19;20018;-68
2022/09/14 08:14:12;;;;;;;4.68;2.25;;;;;;;15.65;77.74;100086.94;7394365;19;20040;-68
2022/09/14 08:16:44;;;;;;;8.00;2.03;;;;;;;15.64;76.54;100083.44;7392679;19;20018;-68
2022/09/14 08:19:16;;;;;;;5.10;2.50;;;;;;;15.65;76.47;100076.34;7395151;19;20018;-70
2022/09/14 08:21:45;;;;;;;7.00;2.30;;;;;;;15.66;77.09;100085.13;7392963;19;20019;-68
2022/09/14 08:24:14;;;;;;;5.20;2.30;;;;;;;15.71;77.04;100083.97;7393572;19;20544;-69
2022/09/14 08:26:43;;;;;;;6.88;2.45;;;;;;;15.76;76.60;100081.91;7394637;19;20508;-68
2022/09/14 08:29:13;;;;;;;8.40;3.40;;;;;;;15.78;76.16;100076.53;7393657;19;20489;-67
2022/09/14 08:31:44;;;;;;;10.60;3.20;;;;;;;15.80;76.12;100086.09;7393668;19;20029;-67
2022/09/14 08:34:13;;;;;;;7.45;2.85;;;;;;;15.83;75.88;100087.75;7393341;19;20030;-70
2022/09/14 08:36:43;;;;;;;11.98;2.58;;;;;;;15.84;75.91;100086.81;7394038;19;20082;-69
2022/09/14 08:39:14;;;;;;;6.97;2.05;;;;;;;15.86;76.14;100078.78;7393603;19;20018;-69
2022/09/14 08:41:52;;;;;;;8.35;2.30;;;;;;;15.89;75.83;100087.41;7391859;19;20070;-67
2022/09/14 08:44:25;;;;;;;11.45;2.40;;;;;;;15.94;75.71;100081.88;7393319;19;20575;-68
2022/09/14 08:47:01;;;;;;;6.35;2.30;;;;;;;15.96;75.58;100067.63;7397784;19;20015;-68
2022/09/14 08:49:43;;;;;;;5.85;1.75;;;;;;;16.03;75.41;100068.16;7400550;19;20094;-70
2022/09/14 08:52:18;;;;;;;8.13;2.00;;;;;;;16.05;75.07;100046.88;7399532;19;20022;-69
2022/09/14 08:54:55;;;;;;;11.60;2.13;;;;;;;16.09;75.22;100054.59;7398355;19;20077;-69
2022/09/14 08:57:29;;;;;;;11.82;1.95;;;;;;;16.13;74.72;100058.75;7398216;19;20078;-69
2022/09/14 09:00:08;;;;;;;9.10;2.13;;;;;;;16.15;74.18;100052.53;7401589;19;20022;-70
2022/09/14 09:03:12;;;;;;;9.77;1.70;;;;;;;16.21;73.49;100052.19;7398681;19;20011;-67
2022/09/14 09:05:48;;;;;;;9.48;2.55;;;;;;;16.29;74.45;100057.91;7400441;19;20415;-68
2022/09/14 09:08:24;;;;;;;7.45;1.70;;;;;;;16.35;73.94;100057.56;7400566;19;20359;-68
2022/09/14 09:10:55;;;;;;;9.52;1.83;;;;;;;16.42;73.86;100047.47;7397976;19;20025;-68
2022/09/14 09:13:30;;;;;;;6.15;2.17;;;;;;;16.48;73.76;100051.56;7401479;19;20023;-68
2022/09/14 09:16:02;;;;;;;7.00;2.15;;;;;;;16.53;73.39;100041.53;7400277;19;20022;-67
2022/09/14 09:18:39;;;;;;;9.38;1.83;;;;;;;16.58;73.21;100053.59;7400639;19;20421;-68
2022/09/14 09:21:13;;;;;;;10.15;2.25;;;;;;;16.65;72.87;100046.13;7399909;19;20015;-68
2022/09/14 09:23:43;;;;;;;7.30;2.17;;;;;;;16.73;72.71;100045.69;7399872;19;20074;-67
2022/09/14 09:26:21;;;;;;;8.43;2.55;;;;;;;16.83;72.58;100043.34;7397597;19;20023;-68
2022/09/14 09:29:00;;;;;;;7.50;1.45;;;;;;;16.91;72.17;100046.44;7400413;19;20018;-69
2022/09/14 09:31:34;;;;;;;8.02;1.80;;;;;;;16.97;70.11;100045.22;7397939;19;20023;-67
2022/09/14 09:34:05;;;;;;;8.63;1.80;;;;;;;16.98;70.17;100042.47;7400271;19;20093;-69
2022/09/14 09:36:59;;;;;;;13.27;1.77;;;;;;;17.02;69.67;100030.75;7399552;19;20014;-69
2022/09/14 09:39:30;;;;;;;8.52;2.58;;;;;;;17.07;70.08;100033.97;7399445;19;20117;-67
2022/09/14 09:42:20;;;;;;;5.70;1.25;;;;;;;17.15;68.19;100033.53;7398235;19;20011;-69
2022/09/14 09:44:56;;;;;;;7.75;1.40;;;;;;;17.19;67.82;100027.06;7396593;19;20011;-68
2022/09/14 09:47:32;;;;;;;6.75;1.23;;;;;;;17.27;67.32;100031.91;7399513;19;20026;-68
2022/09/14 09:50:07;;;;;;;6.03;1.48;;;;;;;17.35;67.59;100034.94;7398696;19;20102;-68
2022/09/14 09:52:36;;;;;;;9.35;1.70;;;;;;;17.42;67.40;100030.94;7397845;19;20019;-73
2022/09/14 09:55:07;;;;;;;5.07;1.13;;;;;;;17.53;67.06;100032.13;7398741;19;20074;-69
2022/09/14 09:57:38;;;;;;;6.20;1.85;;;;;;;17.61;66.43;100021.88;7394542;19;20074;-68
2022/09/14 10:00:22;;;;;;;6.75;1.20;;;;;;;17.72;65.09;100021.19;7396750;19;20015;-69
2022/09/14 10:02:51;;;;;;;;;;;;;;;17.81;65.61;100020.59;7397720;19;20015;-69
2022/09/14 10:05:27;;;;;;;6.00;1.10;;;;;;;17.87;59.98;100024.69;7396422;19;19918;-69
2022/09/14 10:07:59;;;;;;;4.95;1.20;;;;;;;17.92;63.95;100022.59;7399500;19;20087;-69
2022/09/14 10:10:44;;;;;;;5.57;2.05;;;;;;;18.01;61.43;100026.50;7396384;19;20510;-69
2022/09/14 10:13:24;;;;;;;3.72;1.10;;;;;;;18.04;60.07;100029.78;7395712;19;20026;-69
2022/09/14 10:15:53;;;;;;;7.70;1.25;;;;;;;18.10;62.12;100020.56;7398303;19;20074;-68
2022/09/14 10:18:22;;;;;;;4.35;1.13;;;;;;;18.14;61.13;100026.53;7398299;19;20423;-69
2022/09/14 10:21:11;;;;;;;5.53;1.00;;;;;;;18.13;58.76;100019.53;7398358;19;20073;-70
2022/09/14 10:23:41;;;;;;;4.38;1.15;;;;;;;18.09;60.57;100008.25;7398397;19;20081;-69
2022/09/14 10:26:28;;;;;;;8.27;1.83;;;;;;;18.11;59.67;100008.13;7395495;19;20019;-69
2022/09/14 10:28:56;;;;;;;5.70;1.25;;;;;;;18.11;59.91;100005.50;7396692;19;20070;-69
2022/09/14 10:31:32;;;;;;;5.85;1.42;;;;;;;18.13;60.36;99999.13;7395812;19;20022;-68
2022/09/14 10:34:01;;;;;;;5.60;1.60;;;;;;;18.15;59.71;99997.22;7395289;19;20011;-70
2022/09/14 10:36:35;;;;;;;6.20;1.00;;;;;;;18.18;59.07;99996.19;7397500;19;20474;-68
2022/09/14 10:39:14;;;;;;;6.47;2.13;;;;;;;18.20;58.79;100004.91;7396649;19;20020;-69
2022/09/14 10:41:57;;;;;;;7.55;1.55;;;;;;;18.19;58.99;99993.41;7394356;19;20085;-69
2022/09/14 10:44:45;;;;;;;5.53;1.30;;;;;;;18.18;58.77;99999.66;7397848;19;20018;-68
2022/09/14 10:47:50;;;;;;;7.45;1.30;;;;;;;18.19;57.67;100009.34;7396867;19;20367;-68
2022/09/14 10:50:31;;;;;;;7.03;2.15;;;;;;;18.16;58.14;99998.94;7396303;19;20369;-68
2022/09/14 10:53:14;;;;;;;5.07;1.88;;;;;;;18.13;58.68;100004.44;7395507;19;20015;-68
2022/09/14 10:55:48;;;;;;;5.97;1.70;;;;;;;18.15;59.09;99997.22;7398116;19;20077;-69
2022/09/14 10:58:30;;;;;;;4.00;1.20;;;;;;;18.20;58.43;100004.91;7397067;19;20023;-68
2022/09/14 11:01:10;;;;;;;4.50;1.20;;;;;;;18.24;57.76;100001.09;7394977;19;20406;-69
2022/09/14 11:03:55;;;;;;;6.45;1.63;;;;;;;18.26;57.90;100000.97;7396984;19;20022;-68
2022/09/14 11:06:36;;;;;;;4.10;1.63;;;;;;;18.32;58.42;100004.06;7394790;19;20015;-68
2022/09/14 11:09:20;;;;;;;5.15;1.48;;;;;;;18.37;56.58;100007.31;7395469;19;20545;-68
2022/09/14 11:11:58;;;;;;;8.45;1.58;;;;;;;18.42;57.83;100014.94;7394276;19;20503;-68
2022/09/14 11:14:38;;;;;;;3.40;1.23;;;;;;;18.46;57.46;100005.81;7393121;19;20037;-68
2022/09/14 11:17:23;;;;;;;9.15;1.77;;;;;;;18.47;57.75;100004.88;7392633;19;20485;-69
2022/09/14 11:19:58;;;;;;;7.82;1.17;;;;;;;18.52;57.27;100000.09;7396220;19;20031;-67
2022/09/14 11:22:36;;;;;;;6.72;1.95;;;;;;;18.59;57.78;100011.19;7393549;19;20021;-69
2022/09/14 11:25:15;;;;;;;7.30;2.20;;;;;;;18.68;57.66;100012.38;7395178;19;20015;-69
2022/09/14 11:27:50;;;;;;;6.88;1.40;;;;;;;18.77;57.13;100008.25;7394821;19;20018;-71
2022/09/14 11:36:17;;;;;;;6.78;1.75;;;;;;;18.87;56.31;99996.03;7392235;19;19999;-71
2022/09/14 11:38:51;;;;;;;6.20;1.25;;;;;;;18.89;55.73;99992.31;7396157;19;20018;-71
2022/09/14 11:41:28;;;;;;;5.80;1.38;;;;;;;18.94;56.19;99992.00;7395773;19;20018;-70
2022/09/14 11:44:02;;;;;;;9.32;1.80;;;;;;;18.97;55.71;99994.47;7395324;19;20027;-70
2022/09/14 11:46:34;;;;;;;7.60;1.77;;;;;;;19.01;55.75;99993.28;7395492;19;20031;-70
2022/09/14 11:49:14;;;;;;;5.60;1.58;;;;;;;19.07;55.17;99985.84;7395348;19;20016;-70
2022/09/14 11:51:49;;;;;;;4.30;1.00;;;;;;;19.05;55.24;99976.16;7393619;19;20494;-70
2022/09/14 11:54:20;;;;;;;8.30;1.65;;;;;;;19.13;54.95;99980.97;7395210;19;20425;-70
2022/09/14 11:56:54;;;;;;;5.70;1.58;;;;;;;19.18;54.44;99986.81;7395398;19;20090;-70